createdAt,value
2019-05-19T00:00:01.012Z,16.30
2019-05-19T00:02:33.915Z,16.30
2019-05-19T00:05:08.469Z,16.20
2019-05-19T00:07:42.706Z,16.20
2019-05-19T00:10:18.653Z,16.20
2019-05-19T00:12:53.459Z,16.30
2019-05-19T00:15:30.226Z,16.30
2019-05-19T00:18:05.100Z,16.30
2019-05-19T00:20:39.868Z,16.50
2019-05-19T00:23:14.980Z,16.30
2019-05-19T00:25:50.142Z,16.30
2019-05-19T00:28:24.543Z,16.20
2019-05-19T00:30:59.430Z,16.20
2019-05-19T00:33:35.762Z,16.10
2019-05-19T00:36:10.182Z,16.00
2019-05-19T00:38:47.807Z,16.00
2019-05-19T00:41:22.411Z,16.00
2019-05-19T00:43:57.125Z,16.10
2019-05-19T00:46:31.134Z,16.00
2019-05-19T00:49:07.264Z,16.00
2019-05-19T00:51:41.850Z,16.00
2019-05-19T00:54:16.292Z,15.90
2019-05-19T00:56:52.132Z,15.80
2019-05-19T00:59:28.929Z,15.80
2019-05-19T01:02:03.498Z,15.90
2019-05-19T01:04:38.626Z,16.10
2019-05-19T01:07:15.530Z,16.10
2019-05-19T01:09:50.594Z,16.10
2019-05-19T01:12:23.023Z,16.10
2019-05-19T01:14:55.686Z,16.20
2019-05-19T01:17:28.049Z,16.30
2019-05-19T01:20:00.900Z,16.10
2019-05-19T01:22:35.167Z,16.00
2019-05-19T01:25:12.765Z,15.90
2019-05-19T01:27:43.581Z,16.00
2019-05-19T01:30:16.759Z,15.90
2019-05-19T01:32:49.782Z,16.00
2019-05-19T01:35:19.483Z,16.10
2019-05-19T01:37:49.606Z,16.10
2019-05-19T01:40:18.466Z,16.20
2019-05-19T01:42:47.257Z,16.10
2019-05-19T01:45:16.317Z,16.00
2019-05-19T01:47:45.166Z,15.90
2019-05-19T01:50:17.942Z,16.00
2019-05-19T01:52:44.565Z,15.90
2019-05-19T01:55:13.618Z,15.90
2019-05-19T01:57:42.481Z,16.00
2019-05-19T02:00:12.244Z,16.00
2019-05-19T02:02:41.045Z,16.00
2019-05-19T02:05:10.073Z,15.90
2019-05-19T02:07:39.066Z,15.90
2019-05-19T02:10:08.737Z,15.90
2019-05-19T02:12:37.630Z,15.80
2019-05-19T02:15:06.985Z,15.50
2019-05-19T02:17:36.879Z,15.40
2019-05-19T02:20:07.504Z,15.40
2019-05-19T02:22:36.397Z,15.50
2019-05-19T02:25:06.148Z,15.50
2019-05-19T02:27:34.993Z,15.50
2019-05-19T02:30:05.471Z,15.50
2019-05-19T02:32:34.332Z,15.50
2019-05-19T02:35:03.714Z,15.50
2019-05-19T02:37:32.502Z,15.50
2019-05-19T02:40:01.291Z,15.50
2019-05-19T02:42:31.729Z,15.60
2019-05-19T02:45:02.147Z,15.60
2019-05-19T02:47:31.600Z,15.70
2019-05-19T02:50:01.631Z,15.80
2019-05-19T02:52:30.760Z,15.80
2019-05-19T02:55:01.029Z,15.80
2019-05-19T02:57:31.069Z,15.70
2019-05-19T02:59:59.991Z,15.70
2019-05-19T03:02:28.649Z,15.50
2019-05-19T03:04:57.341Z,15.40
2019-05-19T03:07:26.229Z,15.20
2019-05-19T03:09:55.018Z,15.20
2019-05-19T03:12:23.806Z,15.20
2019-05-19T03:14:52.725Z,15.20
2019-05-19T03:17:21.610Z,15.20
2019-05-19T03:19:50.375Z,15.20
2019-05-19T03:22:19.162Z,15.30
2019-05-19T03:24:47.978Z,15.30
2019-05-19T03:27:16.738Z,15.40
2019-05-19T03:29:50.159Z,15.30
2019-05-19T03:32:20.629Z,15.20
2019-05-19T03:34:49.700Z,15.30
2019-05-19T03:37:18.469Z,15.30
2019-05-19T03:39:47.240Z,15.20
2019-05-19T03:42:16.148Z,15.20
2019-05-19T03:44:44.936Z,15.30
2019-05-19T03:47:13.604Z,15.30
2019-05-19T03:49:42.515Z,15.30
2019-05-19T03:52:11.313Z,15.40
2019-05-19T03:54:40.190Z,15.30
2019-05-19T03:57:08.979Z,15.10
2019-05-19T03:59:37.766Z,14.90
2019-05-19T04:02:06.555Z,14.80
2019-05-19T04:04:35.343Z,14.80
2019-05-19T04:07:04.133Z,14.70
2019-05-19T04:09:32.894Z,14.70
2019-05-19T04:12:01.605Z,14.80
2019-05-19T04:14:30.393Z,14.90
2019-05-19T04:16:59.158Z,15.10
2019-05-19T04:19:27.868Z,15.20
2019-05-19T04:21:56.680Z,15.20
2019-05-19T04:24:25.445Z,15.30
2019-05-19T04:26:54.334Z,15.30
2019-05-19T04:29:23.031Z,15.10
2019-05-19T04:31:51.808Z,15.20
2019-05-19T04:34:20.597Z,15.30
2019-05-19T04:36:49.387Z,15.30
2019-05-19T04:39:18.157Z,15.50
2019-05-19T04:41:46.964Z,15.40
2019-05-19T04:44:15.727Z,15.50
2019-05-19T04:46:44.648Z,15.60
2019-05-19T04:49:13.408Z,15.70
2019-05-19T04:51:42.191Z,15.80
2019-05-19T04:54:11.009Z,16.00
2019-05-19T04:56:39.793Z,16.00
2019-05-19T04:59:08.698Z,15.80
2019-05-19T05:01:37.445Z,15.70
2019-05-19T05:04:06.241Z,15.80
2019-05-19T05:06:35.152Z,15.60
2019-05-19T05:09:05.066Z,15.50
2019-05-19T05:11:33.754Z,15.40
2019-05-19T05:14:02.644Z,15.40
2019-05-19T05:16:31.429Z,15.40
2019-05-19T05:19:00.115Z,15.40
2019-05-19T05:21:28.902Z,15.40
2019-05-19T05:23:57.690Z,15.30
2019-05-19T05:26:26.483Z,15.30
2019-05-19T05:28:55.164Z,15.50
2019-05-19T05:31:23.952Z,15.60
2019-05-19T05:33:52.639Z,15.70
2019-05-19T05:36:21.427Z,15.80
2019-05-19T05:38:50.218Z,15.80
2019-05-19T05:41:18.983Z,15.80
2019-05-19T05:43:47.780Z,15.90
2019-05-19T05:46:16.684Z,16.10
2019-05-19T05:48:45.376Z,16.30
2019-05-19T05:51:14.158Z,16.30
2019-05-19T05:53:42.947Z,16.30
2019-05-19T05:56:11.745Z,16.20
2019-05-19T05:58:40.521Z,16.10
2019-05-19T06:01:09.425Z,16.10
2019-05-19T06:03:38.178Z,16.00
2019-05-19T06:06:07.092Z,16.10
2019-05-19T06:08:35.880Z,16.10
2019-05-19T06:11:04.875Z,16.00
2019-05-19T06:13:33.634Z,16.10
2019-05-19T06:16:02.653Z,16.10
2019-05-19T06:18:31.415Z,16.30
2019-05-19T06:21:00.128Z,16.30
2019-05-19T06:23:28.913Z,16.40
2019-05-19T06:25:57.602Z,16.60
2019-05-19T06:28:26.387Z,16.80
2019-05-19T06:30:55.254Z,16.80
2019-05-19T06:33:24.068Z,16.70
2019-05-19T06:35:52.859Z,16.70
2019-05-19T06:38:21.618Z,16.80
2019-05-19T06:40:50.436Z,16.90
2019-05-19T06:43:19.223Z,16.90
2019-05-19T06:45:48.007Z,17.00
2019-05-19T06:48:16.800Z,17.10
2019-05-19T06:50:45.485Z,17.00
2019-05-19T06:53:14.814Z,17.00
2019-05-19T06:55:44.083Z,17.10
2019-05-19T06:58:12.871Z,17.10
2019-05-19T07:00:41.953Z,16.90
2019-05-19T07:03:12.825Z,16.80
2019-05-19T07:05:42.582Z,16.70
2019-05-19T07:08:12.093Z,16.70
2019-05-19T07:10:41.757Z,16.80
2019-05-19T07:13:10.828Z,16.80
2019-05-19T07:15:41.546Z,16.90
2019-05-19T07:18:11.868Z,17.00
2019-05-19T07:20:43.325Z,17.00
2019-05-19T07:23:27.343Z,16.80
2019-05-19T07:25:45.254Z,16.70
2019-05-19T07:28:16.485Z,16.40
2019-05-19T07:30:50.544Z,16.20
2019-05-19T07:33:25.313Z,16.00
2019-05-19T07:35:55.700Z,16.00
2019-05-19T07:38:26.975Z,16.00
2019-05-19T07:40:56.747Z,16.20
2019-05-19T07:43:47.072Z,16.20
2019-05-19T07:46:17.953Z,16.00
2019-05-19T07:48:48.530Z,16.00
2019-05-19T07:51:20.400Z,16.10
2019-05-19T07:53:49.289Z,16.10
2019-05-19T07:56:18.272Z,16.20
2019-05-19T07:58:47.052Z,16.20
2019-05-19T08:01:16.066Z,16.30
2019-05-19T08:03:45.036Z,16.40
2019-05-19T08:06:13.927Z,16.60
2019-05-19T08:08:42.840Z,16.90
2019-05-19T08:11:11.605Z,17.20
2019-05-19T08:13:40.518Z,17.40
2019-05-19T08:16:09.406Z,17.60
2019-05-19T08:18:38.305Z,17.70
2019-05-19T08:21:07.061Z,18.00
2019-05-19T08:23:36.285Z,18.30
2019-05-19T08:26:05.692Z,18.70
2019-05-19T08:28:34.476Z,19.00
2019-05-19T08:31:03.367Z,19.10
2019-05-19T08:33:32.153Z,18.80
2019-05-19T08:36:01.046Z,18.70
2019-05-19T08:38:29.832Z,18.90
2019-05-19T08:40:58.734Z,19.10
2019-05-19T08:43:27.495Z,18.90
2019-05-19T08:45:56.399Z,19.10
2019-05-19T08:48:25.397Z,19.30
2019-05-19T08:50:54.769Z,19.60
2019-05-19T08:53:27.123Z,19.90
2019-05-19T08:55:57.184Z,20.20
2019-05-19T08:58:26.381Z,20.60
2019-05-19T09:00:55.280Z,20.60
2019-05-19T09:03:24.371Z,20.40
2019-05-19T09:05:53.165Z,20.40
2019-05-19T09:08:21.944Z,19.90
2019-05-19T09:10:50.812Z,19.80
2019-05-19T09:13:19.624Z,19.50
2019-05-19T09:15:48.296Z,19.90
2019-05-19T09:18:17.102Z,20.00
2019-05-19T09:20:45.989Z,20.00
2019-05-19T09:23:14.880Z,20.00
2019-05-19T09:25:43.641Z,20.10
2019-05-19T09:28:12.737Z,20.10
2019-05-19T09:30:41.651Z,20.00
2019-05-19T09:33:10.439Z,20.00
2019-05-19T09:35:39.207Z,20.10
2019-05-19T09:38:08.124Z,20.40
2019-05-19T09:40:37.012Z,20.90
2019-05-19T09:43:06.754Z,21.30
2019-05-19T09:45:35.613Z,21.40
2019-05-19T09:48:04.368Z,21.00
2019-05-19T09:50:33.689Z,20.80
2019-05-19T09:53:02.569Z,21.10
2019-05-19T09:55:32.137Z,21.30
2019-05-19T09:58:01.140Z,21.40
2019-05-19T10:00:29.977Z,21.50
2019-05-19T10:02:58.764Z,21.50
2019-05-19T10:05:27.656Z,21.40
2019-05-19T10:07:56.854Z,21.40
2019-05-19T10:10:51.035Z,21.50
2019-05-19T10:13:20.939Z,21.60
2019-05-19T10:15:49.841Z,22.40
2019-05-19T10:18:18.709Z,22.80
2019-05-19T10:20:50.396Z,23.20
2019-05-19T10:23:18.461Z,23.10
2019-05-19T10:25:47.254Z,23.20
2019-05-19T10:28:16.120Z,23.40
2019-05-19T10:30:44.897Z,23.40
2019-05-19T10:33:13.718Z,23.40
2019-05-19T10:35:42.382Z,23.30
2019-05-19T10:38:11.191Z,23.30
2019-05-19T10:40:40.081Z,23.50
2019-05-19T10:43:08.970Z,23.20
2019-05-19T10:45:39.500Z,23.40
2019-05-19T10:48:08.400Z,23.60
2019-05-19T10:50:37.157Z,23.80
2019-05-19T10:53:09.382Z,24.20
2019-05-19T10:55:38.236Z,24.30
2019-05-19T10:58:07.029Z,24.70
2019-05-19T11:00:35.928Z,25.30
2019-05-19T11:03:04.703Z,25.10
2019-05-19T11:05:33.605Z,24.70
2019-05-19T11:08:05.563Z,24.40
2019-05-19T11:10:34.714Z,24.20
2019-05-19T11:13:04.158Z,23.90
2019-05-19T11:15:34.231Z,23.60
2019-05-19T11:18:08.055Z,23.30
2019-05-19T11:20:37.995Z,23.20
2019-05-19T11:23:07.982Z,23.30
2019-05-19T11:25:50.683Z,23.30
2019-05-19T11:28:15.838Z,23.40
2019-05-19T11:30:46.597Z,23.30
2019-05-19T11:33:15.561Z,23.50
2019-05-19T11:35:44.444Z,23.50
2019-05-19T11:38:13.234Z,23.30
2019-05-19T11:40:42.073Z,23.30
2019-05-19T11:43:10.806Z,23.50
2019-05-19T11:45:39.609Z,23.50
2019-05-19T11:48:08.389Z,23.90
2019-05-19T11:50:41.690Z,24.20
2019-05-19T11:53:08.010Z,24.50
2019-05-19T11:55:37.186Z,24.50
2019-05-19T11:58:06.098Z,24.60
2019-05-19T12:00:34.891Z,24.60
2019-05-19T12:03:03.782Z,24.90
2019-05-19T12:05:32.579Z,25.30
2019-05-19T12:08:01.457Z,25.40
2019-05-19T12:10:30.223Z,25.70
2019-05-19T12:12:59.036Z,26.40
2019-05-19T12:15:29.992Z,26.70
2019-05-19T12:17:59.987Z,27.00
2019-05-19T12:20:30.521Z,26.90
2019-05-19T12:23:00.808Z,27.00
2019-05-19T12:25:30.190Z,27.30
2019-05-19T12:28:05.689Z,27.60
2019-05-19T12:30:36.775Z,27.80
2019-05-19T12:33:05.621Z,28.10
2019-05-19T12:35:34.823Z,28.40
2019-05-19T12:38:03.790Z,28.30
2019-05-19T12:40:32.598Z,28.50
2019-05-19T12:43:01.686Z,28.40
2019-05-19T12:45:30.705Z,27.80
2019-05-19T12:47:59.586Z,27.70
2019-05-19T12:50:28.471Z,27.50
2019-05-19T12:52:57.358Z,27.10
2019-05-19T12:55:26.436Z,26.90
2019-05-19T12:57:55.220Z,27.00
2019-05-19T13:00:24.030Z,27.30
2019-05-19T13:02:53.038Z,27.70
2019-05-19T13:05:22.056Z,28.00
2019-05-19T13:07:51.034Z,28.30
2019-05-19T13:10:20.104Z,28.20
2019-05-19T13:12:49.835Z,28.60
2019-05-19T13:15:18.612Z,28.70
2019-05-19T13:17:47.393Z,28.20
2019-05-19T13:20:17.695Z,27.80
2019-05-19T13:22:46.939Z,27.40
2019-05-19T13:25:15.803Z,27.20
2019-05-19T13:27:44.472Z,27.00
2019-05-19T13:30:13.861Z,27.20
2019-05-19T13:32:42.792Z,27.30
2019-05-19T13:35:11.696Z,27.80
2019-05-19T13:37:40.669Z,27.80
2019-05-19T13:40:10.226Z,27.70
2019-05-19T13:42:39.065Z,27.40
2019-05-19T13:45:09.536Z,27.40
2019-05-19T13:47:38.508Z,27.20
2019-05-19T13:50:10.599Z,26.70
2019-05-19T13:52:39.445Z,26.50
2019-05-19T13:55:09.557Z,26.60
2019-05-19T13:57:38.526Z,26.80
2019-05-19T14:00:07.764Z,27.00
2019-05-19T14:02:36.642Z,27.20
2019-05-19T14:05:06.305Z,27.30
2019-05-19T14:07:35.239Z,26.80
2019-05-19T14:10:07.244Z,26.60
2019-05-19T14:12:36.503Z,26.20
2019-05-19T14:15:07.127Z,25.60
2019-05-19T14:17:38.538Z,25.40
2019-05-19T14:20:08.474Z,25.40
2019-05-19T14:22:37.697Z,25.70
2019-05-19T14:25:08.026Z,25.20
2019-05-19T14:27:36.808Z,26.00
2019-05-19T14:30:08.364Z,26.10
2019-05-19T14:32:40.631Z,26.30
2019-05-19T14:35:13.912Z,26.40
2019-05-19T14:37:42.842Z,26.40
2019-05-19T14:40:12.041Z,26.40
2019-05-19T14:42:42.548Z,26.10
2019-05-19T14:45:12.722Z,26.00
2019-05-19T14:47:41.532Z,25.70
2019-05-19T14:50:11.868Z,25.30
2019-05-19T14:52:40.662Z,25.50
2019-05-19T14:55:09.949Z,25.80
2019-05-19T14:57:44.940Z,25.70
2019-05-19T15:00:09.658Z,25.20
2019-05-19T15:02:38.583Z,25.50
2019-05-19T15:05:08.189Z,25.50
2019-05-19T15:07:37.386Z,25.60
2019-05-19T15:10:10.085Z,25.80
2019-05-19T15:12:38.955Z,25.40
2019-05-19T15:15:08.158Z,25.80
2019-05-19T15:17:37.044Z,26.10
2019-05-19T15:20:08.187Z,25.60
2019-05-19T15:22:37.595Z,25.10
2019-05-19T15:25:07.186Z,24.90
2019-05-19T15:27:37.706Z,24.40
2019-05-19T15:30:13.118Z,24.10
2019-05-19T15:32:37.658Z,24.10
2019-05-19T15:37:52.252Z,23.90
2019-05-19T15:40:21.126Z,23.80
2019-05-19T15:42:50.104Z,23.40
2019-05-19T15:45:20.645Z,22.80
2019-05-19T15:47:49.640Z,22.80
2019-05-19T15:50:18.604Z,22.50
2019-05-19T15:52:47.728Z,22.20
2019-05-19T15:55:16.802Z,21.80
2019-05-19T15:57:45.591Z,21.60
2019-05-19T16:00:14.925Z,21.30
2019-05-19T16:02:43.813Z,21.10
2019-05-19T16:05:13.919Z,20.70
2019-05-19T16:07:42.913Z,20.40
2019-05-19T16:10:13.089Z,20.30
2019-05-19T16:12:42.028Z,20.10
2019-05-19T16:15:11.516Z,19.90
2019-05-19T16:17:40.324Z,19.70
2019-05-19T16:20:09.492Z,19.60
2019-05-19T16:22:38.510Z,19.50
2019-05-19T16:25:07.697Z,19.40
2019-05-19T16:27:36.514Z,19.30
2019-05-19T16:30:09.970Z,19.10
2019-05-19T16:32:38.857Z,18.90
2019-05-19T16:35:07.754Z,18.80
2019-05-19T16:37:36.674Z,18.60
2019-05-19T16:40:07.455Z,18.40
2019-05-19T16:42:36.391Z,18.40
2019-05-19T16:45:08.400Z,18.30
2019-05-19T16:47:37.228Z,18.10
2019-05-19T16:50:07.394Z,18.10
2019-05-19T16:52:36.260Z,17.50
2019-05-19T16:55:17.740Z,17.40
2019-05-19T16:57:46.528Z,17.40
2019-05-19T17:00:15.735Z,17.20
2019-05-19T17:02:44.617Z,17.20
2019-05-19T17:05:13.495Z,17.30
2019-05-19T17:07:42.383Z,17.30
2019-05-19T17:10:11.550Z,17.50
2019-05-19T17:12:40.382Z,17.60
2019-05-19T17:15:09.656Z,17.50
2019-05-19T17:17:38.578Z,17.40
2019-05-19T17:20:13.698Z,17.50
2019-05-19T17:22:42.604Z,17.50
2019-05-19T17:25:11.580Z,17.50
2019-05-19T17:27:41.000Z,17.50
2019-05-19T17:30:11.633Z,17.40
2019-05-19T17:32:40.416Z,17.10
2019-05-19T17:35:10.039Z,17.20
2019-05-19T17:37:38.817Z,17.30
2019-05-19T17:40:08.846Z,17.30
2019-05-19T17:42:38.513Z,17.10
2019-05-19T17:45:08.231Z,17.00
2019-05-19T17:47:37.695Z,16.90
2019-05-19T17:50:07.215Z,17.20
2019-05-19T17:52:36.022Z,17.30
2019-05-19T17:55:06.754Z,17.30
2019-05-19T17:57:37.003Z,17.30
2019-05-19T18:00:10.255Z,17.40
2019-05-19T18:02:39.289Z,17.20
2019-05-19T18:05:08.079Z,16.80
2019-05-19T18:07:36.977Z,16.70
2019-05-19T18:10:07.601Z,16.80
2019-05-19T18:12:36.387Z,17.00
2019-05-19T18:15:06.390Z,16.70
2019-05-19T18:17:35.192Z,16.60
2019-05-19T18:20:06.439Z,16.40
2019-05-19T18:22:35.332Z,16.30
2019-05-19T18:25:05.491Z,16.20
2019-05-19T18:27:35.485Z,16.10
2019-05-19T18:30:05.294Z,16.20
2019-05-19T18:32:34.143Z,16.20
2019-05-19T18:35:02.944Z,16.20
2019-05-19T18:37:31.786Z,16.00
2019-05-19T18:40:00.638Z,16.10
2019-05-19T18:42:29.483Z,16.20
2019-05-19T18:44:58.314Z,16.10
2019-05-19T18:47:27.205Z,15.90
2019-05-19T18:49:56.200Z,15.80
2019-05-19T18:52:26.945Z,15.90
2019-05-19T18:54:55.822Z,16.00
2019-05-19T18:57:24.604Z,16.00
2019-05-19T18:59:54.778Z,15.80
2019-05-19T19:02:23.913Z,15.80
2019-05-19T19:04:52.819Z,15.90
2019-05-19T19:07:23.264Z,15.80
2019-05-19T19:09:52.749Z,15.80
2019-05-19T19:12:22.325Z,15.80
2019-05-19T19:14:51.248Z,15.80
2019-05-19T19:17:20.062Z,15.70
2019-05-19T19:19:49.036Z,15.60
2019-05-19T19:22:18.127Z,15.50
2019-05-19T19:24:52.645Z,15.60
2019-05-19T19:27:21.334Z,15.50
2019-05-19T19:30:02.467Z,15.50
2019-05-19T19:32:26.003Z,15.20
2019-05-19T19:34:55.379Z,14.90
2019-05-19T19:37:24.168Z,14.90
2019-05-19T19:39:52.886Z,14.70
2019-05-19T19:42:21.675Z,14.70
2019-05-19T19:44:50.398Z,14.60
2019-05-19T19:47:19.119Z,14.80
2019-05-19T19:50:06.896Z,14.80
2019-05-19T19:52:34.312Z,14.60
2019-05-19T19:55:04.190Z,14.40
2019-05-19T19:57:41.263Z,14.20
2019-05-19T20:00:18.271Z,13.90
2019-05-19T20:02:44.150Z,13.80
2019-05-19T20:05:18.952Z,13.90
2019-05-19T20:07:47.820Z,14.00
2019-05-19T20:10:16.701Z,14.20
2019-05-19T20:12:49.373Z,14.40
2019-05-19T20:15:18.292Z,14.40
2019-05-19T20:17:47.323Z,14.30
2019-05-19T20:20:24.100Z,14.20
2019-05-19T20:22:58.981Z,14.30
2019-05-19T20:25:37.010Z,14.30
2019-05-19T20:28:03.728Z,14.40
2019-05-19T20:30:36.192Z,14.50
2019-05-19T20:33:03.349Z,14.40
2019-05-19T20:35:33.148Z,14.50
2019-05-19T20:38:02.668Z,14.50
2019-05-19T20:40:36.197Z,14.30
2019-05-19T20:43:08.990Z,14.30
2019-05-19T20:45:43.312Z,14.20
2019-05-19T20:48:34.428Z,14.30
2019-05-19T20:51:23.139Z,14.40
2019-05-19T20:53:53.395Z,14.30
2019-05-19T20:56:23.045Z,14.10
2019-05-19T20:58:54.069Z,14.00
2019-05-19T21:01:24.143Z,14.10
2019-05-19T21:03:53.761Z,14.10
2019-05-19T21:06:25.695Z,14.00
2019-05-19T21:08:56.662Z,13.70
2019-05-19T21:11:26.957Z,13.90
2019-05-19T21:13:59.508Z,14.10
2019-05-19T21:16:31.306Z,14.00
2019-05-19T21:19:03.530Z,13.90
2019-05-19T21:21:35.686Z,13.80
2019-05-19T21:24:10.659Z,13.80
2019-05-19T21:26:39.559Z,13.70
2019-05-19T21:29:13.470Z,13.60
2019-05-19T21:31:45.975Z,13.60
2019-05-19T21:34:18.414Z,13.80
2019-05-19T21:36:52.418Z,13.90
2019-05-19T21:39:25.662Z,13.70
2019-05-19T21:41:58.681Z,13.70
2019-05-19T21:44:32.386Z,13.60
2019-05-19T21:47:04.828Z,13.70
2019-05-19T21:49:34.479Z,14.10
2019-05-19T21:52:03.781Z,14.20
2019-05-19T21:54:32.671Z,14.10
2019-05-19T21:57:01.360Z,14.00
2019-05-19T21:59:30.351Z,14.00
2019-05-19T22:01:59.323Z,13.80
2019-05-19T22:04:28.439Z,13.70
2019-05-19T22:06:58.842Z,13.70
2019-05-19T22:09:27.755Z,13.60
2019-05-19T22:11:56.421Z,13.60
2019-05-19T22:14:25.452Z,13.60
2019-05-19T22:16:54.323Z,13.70
2019-05-19T22:19:23.115Z,13.80
2019-05-19T22:21:51.799Z,14.00
2019-05-19T22:24:20.628Z,14.00
2019-05-19T22:26:50.139Z,14.00
2019-05-19T22:29:19.188Z,13.90
2019-05-19T22:31:48.079Z,13.80
2019-05-19T22:34:16.866Z,13.80
2019-05-19T22:36:45.756Z,13.60
2019-05-19T22:39:35.067Z,13.70
2019-05-19T22:42:04.018Z,13.70
2019-05-19T22:44:32.783Z,13.70
2019-05-19T22:47:01.746Z,13.60
2019-05-19T22:49:30.694Z,13.50
2019-05-19T22:51:59.580Z,13.50
2019-05-19T22:54:28.492Z,13.30
2019-05-19T22:56:57.261Z,13.20
2019-05-19T22:59:26.049Z,13.30
2019-05-19T23:01:54.835Z,13.30
2019-05-19T23:04:23.729Z,13.10
2019-05-19T23:06:52.617Z,13.10
2019-05-19T23:09:21.381Z,13.10
2019-05-19T23:11:50.198Z,13.10
2019-05-19T23:14:19.193Z,12.90
2019-05-19T23:16:48.566Z,12.80
2019-05-19T23:19:17.353Z,12.90
2019-05-19T23:21:46.167Z,13.10
2019-05-19T23:24:14.956Z,13.10
2019-05-19T23:26:43.747Z,13.20
2019-05-19T23:29:12.631Z,13.10
2019-05-19T23:31:41.433Z,13.10
2019-05-19T23:34:10.123Z,13.00
2019-05-19T23:36:38.869Z,13.00
2019-05-19T23:39:07.784Z,13.10
2019-05-19T23:41:36.671Z,13.20
2019-05-19T23:44:05.437Z,13.40
2019-05-19T23:46:34.354Z,13.40
2019-05-19T23:49:03.021Z,13.30
2019-05-19T23:51:31.932Z,13.10
2019-05-19T23:54:00.821Z,13.10
2019-05-19T23:56:29.609Z,13.10
2019-05-19T23:58:58.499Z,13.20
